createdAt,value
2019-02-04T06:44:58.010Z,23.12
2019-02-04T06:47:25.042Z,17.90
2019-02-04T06:49:52.074Z,17.23
2019-02-04T06:52:19.110Z,18.35
2019-02-04T06:54:46.148Z,17.30
2019-02-04T06:57:13.488Z,19.65
2019-02-04T06:59:40.540Z,19.75
2019-02-04T07:02:07.595Z,19.42
2019-02-04T07:04:34.638Z,19.17
2019-02-04T07:07:01.687Z,18.32
2019-02-04T07:09:28.747Z,20.23
2019-02-04T07:11:55.827Z,22.85
2019-02-04T07:14:22.877Z,27.30
2019-02-04T07:16:49.913Z,22.15
2019-02-04T07:19:24.262Z,21.52
2019-02-04T07:21:45.942Z,24.67
2019-02-04T07:24:13.012Z,25.20
2019-02-04T07:26:40.098Z,19.82
2019-02-04T07:29:07.137Z,21.10
2019-02-04T07:31:34.200Z,21.42
2019-02-04T07:34:01.638Z,22.10
2019-02-04T07:36:28.699Z,20.02
2019-02-04T07:38:55.751Z,21.95
2019-02-04T07:41:22.821Z,25.15
2019-02-04T07:43:49.879Z,23.47
2019-02-04T07:46:16.909Z,19.05
2019-02-04T07:48:43.947Z,18.55
2019-02-04T07:51:11.101Z,17.17
2019-02-04T07:53:38.181Z,15.53
2019-02-04T07:56:05.250Z,15.35
2019-02-04T07:58:32.295Z,17.05
2019-02-04T08:00:59.383Z,16.02
2019-02-04T08:03:26.463Z,17.82
2019-02-04T08:05:53.527Z,16.15
2019-02-04T08:08:20.585Z,16.93
2019-02-04T08:10:47.631Z,17.52
2019-02-04T08:13:14.683Z,16.87
2019-02-04T08:15:41.741Z,15.65
2019-02-04T08:18:08.803Z,17.27
2019-02-04T08:20:35.847Z,18.65
2019-02-04T08:23:02.884Z,20.65
2019-02-04T08:25:29.947Z,19.65
2019-02-04T08:27:57.202Z,19.20
2019-02-04T08:30:26.474Z,18.07
2019-02-04T08:32:53.633Z,18.52
2019-02-04T08:35:20.697Z,17.70
2019-02-04T08:37:47.747Z,21.42
2019-02-04T08:40:14.833Z,19.75
2019-02-04T08:42:42.019Z,22.48
2019-02-04T08:45:10.118Z,20.55
2019-02-04T08:47:37.179Z,19.80
2019-02-04T08:50:05.279Z,20.15
2019-02-04T08:52:32.341Z,18.75
2019-02-04T08:54:59.468Z,19.57
2019-02-04T08:57:26.583Z,24.50
2019-02-04T08:59:53.740Z,21.80
2019-02-04T09:02:20.781Z,22.13
2019-02-04T09:04:48.151Z,21.07
2019-02-04T09:07:15.206Z,19.70
2019-02-04T09:09:42.386Z,21.97
2019-02-04T09:12:10.045Z,23.92
2019-02-04T09:14:37.114Z,25.62
2019-02-04T09:17:04.182Z,23.18
2019-02-04T09:19:31.238Z,19.32
2019-02-04T09:21:58.286Z,19.90
2019-02-04T09:24:25.582Z,22.82
2019-02-04T09:26:52.628Z,20.08
2019-02-04T09:29:19.686Z,20.45
2019-02-04T09:31:46.732Z,19.70
2019-02-04T09:34:13.777Z,19.35
2019-02-04T09:36:40.846Z,20.45
2019-02-04T09:39:08.690Z,18.92
2019-02-04T09:41:36.044Z,19.37
2019-02-04T09:44:03.085Z,20.48
2019-02-04T09:46:30.148Z,17.73
2019-02-04T09:48:57.201Z,17.23
2019-02-04T09:51:24.273Z,17.70
2019-02-04T09:53:51.503Z,16.05
2019-02-04T09:56:18.577Z,16.93
2019-02-04T09:58:45.729Z,17.82
2019-02-04T10:01:12.896Z,17.92
2019-02-04T10:03:39.990Z,17.85
2019-02-04T10:06:07.043Z,16.25
2019-02-04T10:08:34.103Z,15.90
2019-02-04T10:11:01.149Z,13.80
2019-02-04T10:13:28.338Z,13.65
2019-02-04T10:15:58.585Z,10.75
2019-02-04T10:18:25.642Z,10.10
2019-02-04T10:20:52.803Z,11.20
2019-02-04T10:23:20.066Z,12.85
2019-02-04T10:25:47.169Z,11.18
2019-02-04T10:28:14.443Z,12.15
2019-02-04T10:30:41.964Z,11.97
2019-02-04T10:33:09.047Z,10.90
2019-02-04T10:35:36.077Z,12.70
2019-02-04T10:38:03.233Z,13.45
2019-02-04T10:40:30.338Z,14.30
2019-02-04T10:42:57.457Z,13.78
2019-02-04T10:45:25.498Z,11.95
2019-02-04T10:47:52.700Z,12.70
2019-02-04T10:50:21.840Z,13.38
2019-02-04T10:52:49.627Z,13.60
2019-02-04T10:55:17.359Z,10.53
2019-02-04T10:57:44.580Z,13.00
2019-02-04T11:00:14.094Z,12.63
2019-02-04T11:02:41.156Z,12.37
2019-02-04T11:05:10.652Z,12.82
2019-02-04T11:07:38.099Z,13.20
2019-02-04T11:10:06.669Z,14.05
2019-02-04T11:12:33.703Z,12.82
2019-02-04T11:15:00.793Z,15.18
2019-02-04T11:17:27.908Z,14.03
2019-02-04T11:19:54.908Z,12.43
2019-02-04T11:22:21.966Z,14.58
2019-02-04T11:24:49.448Z,12.45
2019-02-04T11:27:35.019Z,12.93
2019-02-04T11:30:31.784Z,14.07
2019-02-04T11:33:17.597Z,13.90
2019-02-04T11:35:47.396Z,13.32
2019-02-04T11:38:14.396Z,14.18
2019-02-04T11:40:41.444Z,14.58
2019-02-04T11:43:09.465Z,13.98
2019-02-04T11:45:36.754Z,15.50
2019-02-04T11:48:06.344Z,14.55
2019-02-04T11:50:33.442Z,15.72
2019-02-04T11:53:00.560Z,16.23
2019-02-04T11:55:27.576Z,14.40
2019-02-04T11:57:54.648Z,15.50
2019-02-04T12:00:23.459Z,16.27
2019-02-04T12:02:51.549Z,16.35
2019-02-04T12:05:19.162Z,16.35
2019-02-04T12:07:46.400Z,15.48
2019-02-04T12:10:34.676Z,15.03
2019-02-04T12:13:01.980Z,17.02
2019-02-04T12:15:29.092Z,15.28
2019-02-04T12:17:56.137Z,14.70
2019-02-04T12:20:23.188Z,17.10
2019-02-04T12:22:50.280Z,16.85
2019-02-04T12:25:19.364Z,17.17
2019-02-04T12:27:46.471Z,14.73
2019-02-04T12:30:17.648Z,17.27
2019-02-04T12:32:44.683Z,16.67
2019-02-04T12:35:11.736Z,16.90
2019-02-04T12:37:38.833Z,14.33
2019-02-04T12:40:06.402Z,14.80
2019-02-04T12:42:33.464Z,14.98
2019-02-04T12:45:00.523Z,14.00
2019-02-04T12:47:27.917Z,13.48
2019-02-04T12:49:54.954Z,14.05
2019-02-04T12:52:22.034Z,15.20
2019-02-04T12:54:49.072Z,15.20
2019-02-04T12:57:16.121Z,13.48
2019-02-04T12:59:45.243Z,15.85
2019-02-04T13:02:12.092Z,15.65
2019-02-04T13:04:39.358Z,15.60
2019-02-04T13:07:06.415Z,15.10
2019-02-04T13:09:33.476Z,14.90
2019-02-04T13:12:00.557Z,15.68
2019-02-04T13:14:27.631Z,16.17
2019-02-04T13:16:54.668Z,16.42
2019-02-04T13:19:21.756Z,16.27
2019-02-04T13:21:49.140Z,19.23
2019-02-04T13:24:16.178Z,15.30
2019-02-04T13:26:43.241Z,15.83
2019-02-04T13:29:10.305Z,14.53
2019-02-04T13:31:37.362Z,13.10
2019-02-04T13:34:04.620Z,12.73
2019-02-04T13:36:31.697Z,13.08
2019-02-04T13:38:58.988Z,12.90
2019-02-04T13:41:26.126Z,11.48
2019-02-04T13:43:53.232Z,12.33
2019-02-04T13:46:20.329Z,12.80
2019-02-04T13:48:47.371Z,14.40
2019-02-04T13:51:14.413Z,14.63
2019-02-04T13:53:41.438Z,13.95
2019-02-04T13:56:08.490Z,12.93
2019-02-04T13:58:35.563Z,13.03
2019-02-04T14:01:02.619Z,12.82
2019-02-04T14:03:29.692Z,13.13
2019-02-04T14:05:56.774Z,13.50
2019-02-04T14:08:23.841Z,12.47
2019-02-04T14:10:50.907Z,14.25
2019-02-04T14:13:17.968Z,14.25
2019-02-04T14:15:45.036Z,13.83
2019-02-04T14:18:12.134Z,14.35
2019-02-04T14:20:39.335Z,14.58
2019-02-04T14:23:06.585Z,14.05
2019-02-04T14:25:33.648Z,14.53
2019-02-04T14:28:03.521Z,13.10
2019-02-04T14:30:36.641Z,14.25
2019-02-04T14:33:25.022Z,13.85
2019-02-04T14:35:52.085Z,13.72
2019-02-04T14:38:19.173Z,15.78
2019-02-04T14:40:46.626Z,14.30
2019-02-04T14:43:35.486Z,15.63
2019-02-04T14:46:14.765Z,16.80
2019-02-04T14:49:17.896Z,16.48
2019-02-04T14:52:20.682Z,16.60
2019-02-04T14:55:02.756Z,18.45
2019-02-04T14:58:23.331Z,18.25
2019-02-04T15:01:31.476Z,17.27
2019-02-04T15:04:26.631Z,16.52
2019-02-04T15:07:26.285Z,17.32
2019-02-04T15:10:24.553Z,17.85
2019-02-04T15:13:29.269Z,15.70
2019-02-04T15:16:33.241Z,15.65
2019-02-04T15:19:25.689Z,17.30
2019-02-04T15:22:33.131Z,16.70
2019-02-04T15:25:34.889Z,15.55
2019-02-04T15:28:43.963Z,15.40
2019-02-04T15:32:08.163Z,18.20
2019-02-04T15:35:26.097Z,15.60
2019-02-04T15:38:16.526Z,15.08
2019-02-04T15:40:52.955Z,17.95
2019-02-04T15:44:00.660Z,16.00
2019-02-04T15:46:44.889Z,16.37
2019-02-04T15:49:50.896Z,16.75
2019-02-04T15:52:15.811Z,17.50
2019-02-04T15:54:43.028Z,16.05
2019-02-04T15:57:10.094Z,18.45
2019-02-04T15:59:37.415Z,17.95
2019-02-04T16:02:04.478Z,18.77
2019-02-04T16:04:32.845Z,16.85
2019-02-04T16:06:59.940Z,16.25
2019-02-04T16:09:27.308Z,18.17
2019-02-04T16:11:54.409Z,17.30
2019-02-04T16:14:21.594Z,16.85
2019-02-04T16:16:49.111Z,18.35
2019-02-04T16:19:16.248Z,18.75
2019-02-04T16:21:43.377Z,18.92
2019-02-04T16:24:10.488Z,17.10
2019-02-04T16:26:37.654Z,18.25
2019-02-04T16:29:04.884Z,19.23
2019-02-04T16:31:31.964Z,19.07
2019-02-04T16:33:59.757Z,19.10
2019-02-04T16:36:26.975Z,20.85
2019-02-04T16:38:54.144Z,19.60
2019-02-04T16:41:21.308Z,19.90
2019-02-04T16:43:48.439Z,19.52
2019-02-04T16:49:03.100Z,21.37
2019-02-04T16:51:30.325Z,21.17
2019-02-04T16:53:57.436Z,21.10
2019-02-04T16:56:24.567Z,21.75
2019-02-04T16:58:53.119Z,23.10
2019-02-04T17:04:07.080Z,25.17
2019-02-04T17:06:34.203Z,30.82
2019-02-04T17:09:02.314Z,25.17
2019-02-04T17:11:40.938Z,23.30
2019-02-04T17:14:08.237Z,22.02
2019-02-04T17:16:35.621Z,23.27
2019-02-04T17:21:57.823Z,30.12
2019-02-04T17:24:25.046Z,23.80
2019-02-04T17:26:52.506Z,27.60
2019-02-04T17:29:19.640Z,24.07
2019-02-04T17:31:46.759Z,24.72
2019-02-04T17:34:13.931Z,21.97
2019-02-04T17:36:41.315Z,24.32
2019-02-04T17:39:08.554Z,25.32
2019-02-04T17:41:35.713Z,24.95
2019-02-04T17:44:03.458Z,20.85
2019-02-04T17:46:30.850Z,22.32
2019-02-04T17:49:01.255Z,20.37
2019-02-04T17:51:28.392Z,27.93
2019-02-04T17:53:55.558Z,21.55
2019-02-04T17:56:22.695Z,22.27
2019-02-04T17:58:49.845Z,23.70
2019-02-04T18:01:17.538Z,25.27
2019-02-04T18:03:44.695Z,30.45
2019-02-04T18:06:11.851Z,25.52
2019-02-04T18:08:38.981Z,25.02
2019-02-04T18:11:06.196Z,36.23
2019-02-04T18:13:33.662Z,51.35
2019-02-04T18:16:00.860Z,45.63
2019-02-04T18:18:28.327Z,47.17
2019-02-04T18:20:57.499Z,36.10
2019-02-04T18:23:24.528Z,26.82
2019-02-04T18:25:51.688Z,26.05
2019-02-04T18:28:19.175Z,25.95
2019-02-04T18:30:47.888Z,21.02
2019-02-04T18:33:15.070Z,28.23
2019-02-04T18:35:42.591Z,23.38
2019-02-04T18:38:12.354Z,21.60
2019-02-04T18:40:39.714Z,22.67
2019-02-04T18:43:07.429Z,21.65
2019-02-04T18:45:34.679Z,21.97
2019-02-04T18:48:02.230Z,24.10
2019-02-04T18:50:29.890Z,23.98
2019-02-04T18:52:57.599Z,22.80
2019-02-04T18:55:26.960Z,22.50
2019-02-04T18:57:55.076Z,24.07
2019-02-04T19:00:24.159Z,22.22
2019-02-04T19:02:51.726Z,20.75
2019-02-04T19:05:20.633Z,18.98
2019-02-04T19:07:47.915Z,18.52
2019-02-04T19:10:17.097Z,20.23
2019-02-04T19:12:46.626Z,18.50
2019-02-04T19:15:16.638Z,19.05
2019-02-04T19:17:44.108Z,17.42
2019-02-04T19:20:14.721Z,18.98
2019-02-04T19:22:43.949Z,16.82
2019-02-04T19:25:14.548Z,17.62
2019-02-04T19:27:42.170Z,15.40
2019-02-04T19:30:21.009Z,17.52
2019-02-04T19:32:48.907Z,14.50
2019-02-04T19:35:18.089Z,18.60
2019-02-04T19:37:45.782Z,16.35
2019-02-04T19:40:14.179Z,19.35
2019-02-04T19:42:42.144Z,18.92
2019-02-04T19:45:13.426Z,18.27
2019-02-04T19:47:44.709Z,19.25
2019-02-04T19:50:18.141Z,19.20
2019-02-04T19:52:45.615Z,19.60
2019-02-04T19:55:13.220Z,23.35
2019-02-04T19:57:43.900Z,18.77
2019-02-04T20:00:14.940Z,16.27
2019-02-04T20:02:43.115Z,19.32
2019-02-04T20:05:11.946Z,23.70
2019-02-04T20:07:39.913Z,18.92
2019-02-04T20:10:07.719Z,13.72
2019-02-04T20:12:35.112Z,14.53
2019-02-04T20:15:03.916Z,19.40
2019-02-04T20:17:33.701Z,17.85
2019-02-04T20:20:01.576Z,17.98
2019-02-04T20:22:28.973Z,19.02
2019-02-04T20:24:56.228Z,19.50
2019-02-04T20:27:23.627Z,18.52
2019-02-04T20:29:51.941Z,20.95
2019-02-04T20:32:19.293Z,22.00
2019-02-04T20:34:46.664Z,21.50
2019-02-04T20:37:14.539Z,19.55
2019-02-04T20:39:42.340Z,24.10
2019-02-04T20:42:10.687Z,25.35
2019-02-04T20:44:40.206Z,29.65
2019-02-04T20:47:07.442Z,27.67
2019-02-04T20:49:35.244Z,24.20
2019-02-04T20:52:03.497Z,27.73
2019-02-04T20:54:44.565Z,28.07
2019-02-04T20:57:01.757Z,25.52
2019-02-04T20:59:30.397Z,24.20
2019-02-04T21:01:57.600Z,21.85
2019-02-04T21:04:24.973Z,20.95
2019-02-04T21:06:56.286Z,17.12
2019-02-04T21:09:21.940Z,17.07
2019-02-04T21:11:49.115Z,15.50
2019-02-04T21:14:16.457Z,17.23
2019-02-04T21:16:44.130Z,17.12
2019-02-04T21:19:12.509Z,17.48
2019-02-04T21:21:40.744Z,18.10
2019-02-04T21:24:07.946Z,17.20
2019-02-04T21:26:35.991Z,29.90
2019-02-04T21:29:03.191Z,16.77
2019-02-04T21:31:30.577Z,17.32
2019-02-04T21:33:58.113Z,17.42
2019-02-04T21:36:25.249Z,18.65
2019-02-04T21:38:52.810Z,19.07
2019-02-04T21:41:20.183Z,18.12
2019-02-04T21:43:47.404Z,16.85
2019-02-04T21:46:15.002Z,16.80
2019-02-04T21:48:42.151Z,21.07
2019-02-04T21:51:10.466Z,23.12
2019-02-04T21:53:37.563Z,21.45
2019-02-04T21:56:04.679Z,17.65
2019-02-04T21:58:31.906Z,19.45
2019-02-04T22:00:59.062Z,17.30
2019-02-04T22:03:26.466Z,16.00
2019-02-04T22:05:53.578Z,16.55
2019-02-04T22:08:20.646Z,17.35
2019-02-04T22:10:48.152Z,17.73
2019-02-04T22:13:15.204Z,17.80
2019-02-04T22:15:42.638Z,18.30
2019-02-04T22:18:09.749Z,21.20
2019-02-04T22:20:37.158Z,20.20
2019-02-04T22:23:04.225Z,21.20
2019-02-04T22:25:31.274Z,23.50
2019-02-04T22:27:58.329Z,24.50
2019-02-04T22:30:27.087Z,22.20
2019-02-04T22:32:54.155Z,24.43
2019-02-04T22:35:21.297Z,20.15
2019-02-04T22:37:48.556Z,19.98
2019-02-04T22:40:23.531Z,20.65
2019-02-04T22:42:50.742Z,17.23
2019-02-04T22:45:17.814Z,19.95
2019-02-04T22:47:44.998Z,20.30
2019-02-04T22:50:14.935Z,20.77
2019-02-04T22:52:42.018Z,20.12
2019-02-04T22:55:09.066Z,23.77
2019-02-04T22:57:36.212Z,23.50
2019-02-04T23:00:19.911Z,22.73
2019-02-04T23:02:46.978Z,22.85
2019-02-04T23:05:14.039Z,27.82
2019-02-04T23:07:41.091Z,27.85
2019-02-04T23:10:08.568Z,27.50
2019-02-04T23:12:35.609Z,23.85
2019-02-04T23:15:02.924Z,26.37
2019-02-04T23:17:29.986Z,25.82
2019-02-04T23:19:57.038Z,24.75
2019-02-04T23:22:24.090Z,24.07
2019-02-04T23:24:51.142Z,27.65
2019-02-04T23:27:18.502Z,25.30
2019-02-04T23:29:45.692Z,25.77
2019-02-04T23:32:12.766Z,24.60
2019-02-04T23:34:39.836Z,24.98
2019-02-04T23:37:06.994Z,21.70
2019-02-04T23:39:34.050Z,24.20
2019-02-04T23:42:01.089Z,27.65
2019-02-04T23:44:28.536Z,22.07
2019-02-04T23:46:55.587Z,22.73
2019-02-04T23:49:22.631Z,23.83
2019-02-04T23:51:49.697Z,23.77
2019-02-04T23:54:16.752Z,25.00
2019-02-04T23:56:46.819Z,27.42
2019-02-04T23:59:13.873Z,30.02
